Time;durP1;ratioP1;P1;durP2;ratioP2;P2;SDS_P1;SDS_P2;PMS_P1;PMS_P2;Temp;Humidity;BMP_temperature;BMP_pressure;BME280_temperature;BME280_humidity;BME280_pressure;Samples;Min_cycle;Max_cycle;Signal;HPM_P1;HPM_P2
2023/10/26 00:02:02;;;;;;;29.40;12.60;;;;;;;15.60;55.68;97212.03;67908;1273;1015577;-63
2023/10/26 00:05:04;;;;;;;28.40;12.60;;;;;;;15.71;55.73;97207.50;67907;1273;1016312;-67
2023/10/26 00:08:07;;;;;;;29.30;13.20;;;;;;;15.75;55.80;97207.48;67853;1273;1016465;-66
2023/10/26 00:11:09;;;;;;;;;;;;;;;15.92;55.49;97206.20;67902;1273;1016414;-64
2023/10/26 00:14:12;;;;;;;38.20;16.90;;;;;;;15.95;55.49;97202.89;67933;1273;1017408;-67
2023/10/26 00:17:14;;;;;;;32.30;14.50;;;;;;;16.02;54.95;97194.91;67908;1273;1016202;-67
2023/10/26 00:20:17;;;;;;;32.90;15.20;;;;;;;15.93;55.16;97195.30;67889;1273;1016306;-68
2023/10/26 00:23:19;;;;;;;30.20;13.20;;;;;;;15.74;55.35;97192.45;67871;1273;1017135;-68
2023/10/26 00:26:21;;;;;;;33.20;15.50;;;;;;;15.63;55.69;97189.40;67901;1273;1016448;-68
2023/10/26 00:29:24;;;;;;;35.20;15.00;;;;;;;15.68;55.53;97184.94;67925;1273;1016228;-68
2023/10/26 00:32:26;;;;;;;28.80;12.70;;;;;;;15.65;55.54;97180.42;67942;1273;1016406;-67
2023/10/26 00:35:29;;;;;;;28.40;13.90;;;;;;;15.54;55.62;97179.27;67892;1273;1016245;-67
2023/10/26 00:38:31;;;;;;;33.10;13.70;;;;;;;15.36;55.97;97180.67;67870;1273;1016419;-68
2023/10/26 00:41:34;;;;;;;31.50;13.20;;;;;;;15.34;55.87;97175.91;67882;1273;1016255;-68
2023/10/26 00:44:36;;;;;;;28.90;12.60;;;;;;;15.34;55.78;97174.49;67872;1273;1016509;-67
2023/10/26 00:47:38;;;;;;;36.00;16.10;;;;;;;15.39;55.70;97177.27;67935;1273;1016257;-68
2023/10/26 00:50:41;;;;;;;32.60;14.70;;;;;;;15.43;55.85;97171.83;67911;1273;1016421;-68
2023/10/26 00:53:44;;;;;;;;;;;;;;;15.50;55.91;97169.48;67897;1273;1018388;-65
2023/10/26 00:56:47;;;;;;;32.50;13.40;;;;;;;15.58;55.69;97162.61;67916;1273;1016349;-67
2023/10/26 00:59:49;;;;;;;30.50;13.00;;;;;;;15.67;55.76;97160.10;67900;1273;1016188;-67
2023/10/26 01:02:52;;;;;;;32.20;13.00;;;;;;;15.46;56.30;97157.06;67857;1273;1016191;-67
2023/10/26 01:05:54;;;;;;;28.10;12.30;;;;;;;15.40;56.45;97156.38;67888;1273;1016367;-65
2023/10/26 01:08:57;;;;;;;31.50;13.70;;;;;;;15.45;56.28;97156.96;67868;1273;1016320;-67
2023/10/26 01:11:59;;;;;;;29.50;12.40;;;;;;;15.33;56.52;97156.34;67892;1273;1018687;-67
2023/10/26 01:15:02;;;;;;;31.00;13.20;;;;;;;15.26;56.70;97152.67;67859;1273;1018702;-65
2023/10/26 01:18:04;;;;;;;29.70;12.80;;;;;;;15.27;56.99;97151.96;67446;1273;1017084;-68
2023/10/26 01:21:06;;;;;;;30.00;12.90;;;;;;;15.29;57.11;97153.04;67875;1273;1016443;-68
2023/10/26 01:24:09;;;;;;;31.50;13.30;;;;;;;15.26;57.16;97150.16;67926;1273;1016448;-65
2023/10/26 01:27:11;;;;;;;27.60;12.90;;;;;;;15.25;57.08;97152.44;67942;1273;1016432;-67
2023/10/26 01:30:14;;;;;;;26.60;10.90;;;;;;;15.18;56.76;97149.92;67909;1273;1016128;-64
2023/10/26 01:33:16;;;;;;;26.10;10.40;;;;;;;14.97;56.74;97155.03;67924;1273;1017710;-66
2023/10/26 01:36:19;;;;;;;25.50;10.60;;;;;;;15.04;56.79;97154.62;67893;1273;1015933;-64
2023/10/26 01:39:21;;;;;;;31.90;13.90;;;;;;;15.11;56.69;97154.44;67875;1273;1016058;-67
2023/10/26 01:42:24;;;;;;;30.00;12.40;;;;;;;15.21;57.05;97157.59;67841;1273;1016202;-64
2023/10/26 01:45:26;;;;;;;32.70;14.20;;;;;;;15.42;56.71;97152.73;67902;1273;1018464;-64
2023/10/26 01:48:29;;;;;;;30.80;12.70;;;;;;;15.38;56.59;97151.55;67906;1273;1016165;-66
2023/10/26 01:51:31;;;;;;;31.70;14.20;;;;;;;15.42;56.30;97140.72;67909;1273;1016291;-67
2023/10/26 01:54:34;;;;;;;;;;;;;;;15.36;56.54;97132.69;67907;1273;1016320;-65
2023/10/26 01:57:36;;;;;;;31.80;14.40;;;;;;;15.25;56.91;97126.69;67892;1273;1016427;-68
2023/10/26 02:00:38;;;;;;;30.20;13.50;;;;;;;15.15;57.10;97115.39;67912;1273;1016245;-67
2023/10/26 02:03:42;;;;;;;31.10;13.70;;;;;;;15.03;57.19;97107.48;67866;1273;1016457;-67
2023/10/26 02:06:44;;;;;;;31.30;13.50;;;;;;;15.05;57.17;97101.39;67871;1273;1018845;-66
2023/10/26 02:09:46;;;;;;;31.00;14.20;;;;;;;14.97;57.29;97098.35;67907;1273;1016398;-67
2023/10/26 02:12:50;;;;;;;32.40;15.30;;;;;;;14.88;57.61;97093.65;67904;1273;1016245;-66
2023/10/26 02:15:53;;;;;;;33.10;14.60;;;;;;;14.86;57.92;97095.06;67874;1273;1016585;-67
2023/10/26 02:18:55;;;;;;;31.60;15.40;;;;;;;15.01;57.84;97089.68;67963;1273;1016404;-65
2023/10/26 02:21:57;;;;;;;32.90;14.90;;;;;;;15.11;57.80;97086.31;67944;1251;1016809;-67
2023/10/26 02:25:00;;;;;;;34.90;15.60;;;;;;;15.09;57.71;97078.79;67899;1273;1018322;-65
2023/10/26 02:28:02;;;;;;;33.00;15.50;;;;;;;15.02;57.80;97074.95;67882;1273;1016845;-68
2023/10/26 02:31:05;;;;;;;36.50;16.30;;;;;;;15.01;58.04;97071.86;67910;1273;1016243;-66
2023/10/26 02:34:07;;;;;;;33.40;16.70;;;;;;;15.16;57.74;97068.42;67933;1273;1016026;-67
2023/10/26 02:37:09;;;;;;;34.70;16.20;;;;;;;15.38;57.32;97063.12;67925;1273;1017014;-67
2023/10/26 02:40:12;;;;;;;36.20;16.40;;;;;;;15.46;57.25;97058.58;67842;1273;1015994;-67
2023/10/26 02:43:14;;;;;;;34.10;16.10;;;;;;;15.41;57.38;97054.39;67893;1273;1016117;-63
2023/10/26 02:46:17;;;;;;;33.40;16.30;;;;;;;15.28;57.66;97049.46;67899;1273;1016461;-66
2023/10/26 02:49:19;;;;;;;33.10;16.10;;;;;;;15.24;57.94;97043.20;67909;1273;1017566;-66
2023/10/26 02:52:22;;;;;;;34.80;17.20;;;;;;;15.15;58.52;97041.84;67940;1273;1016328;-67
2023/10/26 02:55:24;;;;;;;38.70;17.40;;;;;;;15.09;58.75;97037.36;67882;1273;1016188;-66
2023/10/26 02:58:26;;;;;;;34.20;15.90;;;;;;;15.41;58.16;97027.55;67870;1273;1016474;-65
2023/10/26 03:01:29;;;;;;;34.00;16.60;;;;;;;15.55;57.91;97027.26;67882;1273;1017584;-63
2023/10/26 03:04:32;;;;;;;35.40;17.10;;;;;;;15.40;58.32;97026.27;67909;1273;1015918;-67
2023/10/26 03:07:35;;;;;;;33.50;16.50;;;;;;;15.62;57.86;97022.15;67894;1273;1016476;-64
2023/10/26 03:10:37;;;;;;;38.20;17.90;;;;;;;15.69;57.86;97018.73;67912;1273;1016467;-67
2023/10/26 03:13:39;;;;;;;36.20;17.80;;;;;;;15.66;57.91;97010.63;67936;1273;1016234;-67
2023/10/26 03:16:42;;;;;;;33.60;17.00;;;;;;;15.74;57.69;97008.45;67927;1273;1018367;-67
2023/10/26 03:19:44;;;;;;;40.20;18.60;;;;;;;15.79;57.40;96992.82;67874;1273;1016398;-64
2023/10/26 03:22:46;;;;;;;36.90;17.10;;;;;;;15.65;57.59;96997.55;67894;1273;1016256;-63
2023/10/26 03:25:49;;;;;;;43.00;21.00;;;;;;;15.51;57.96;97005.01;67891;1273;1018505;-66
2023/10/26 03:28:52;;;;;;;36.70;18.10;;;;;;;15.46;58.15;97005.77;67899;1273;1016427;-65
2023/10/26 03:31:54;;;;;;;66.70;31.20;;;;;;;15.46;58.18;97006.81;67879;1273;1016416;-66
2023/10/26 03:34:57;;;;;;;47.90;22.60;;;;;;;15.54;57.86;97010.27;67894;1273;1019721;-67
2023/10/26 03:38:00;;;;;;;40.40;20.30;;;;;;;15.62;57.61;97009.81;67898;1273;1016415;-67
2023/10/26 03:41:02;;;;;;;46.90;23.20;;;;;;;15.56;57.76;97010.41;67908;1273;1016330;-67
2023/10/26 03:44:05;;;;;;;45.90;23.80;;;;;;;15.63;57.79;97007.23;67897;1273;1016477;-68
2023/10/26 03:47:07;;;;;;;46.40;23.40;;;;;;;15.71;57.65;97007.40;67930;1273;1016403;-67
2023/10/26 03:50:10;;;;;;;37.40;18.60;;;;;;;15.66;57.70;97011.88;67945;1273;1016445;-66
2023/10/26 03:53:12;;;;;;;30.00;15.20;;;;;;;15.61;57.97;97019.34;67913;1273;1015840;-66
2023/10/26 03:56:14;;;;;;;34.80;16.90;;;;;;;15.62;58.28;97016.67;67896;1273;1016292;-67
2023/10/26 03:59:17;;;;;;;31.70;15.60;;;;;;;15.68;57.99;97012.86;67900;1273;1016327;-64
2023/10/26 04:02:19;;;;;;;31.60;15.60;;;;;;;15.73;58.38;97016.36;67937;1273;1016534;-65
2023/10/26 04:05:22;;;;;;;31.30;15.10;;;;;;;15.92;58.01;97018.85;67923;1273;1016513;-66
2023/10/26 04:08:24;;;;;;;29.20;13.40;;;;;;;15.98;57.86;97027.69;67936;1273;1017143;-67
2023/10/26 04:11:26;;;;;;;30.00;13.90;;;;;;;15.93;58.06;97028.63;67873;1273;1016416;-66
2023/10/26 04:14:29;;;;;;;29.90;13.40;;;;;;;15.93;58.11;97026.65;67887;1273;1016365;-67
2023/10/26 04:17:31;;;;;;;31.40;13.80;;;;;;;15.93;58.37;97027.50;67923;1273;1016030;-66
2023/10/26 04:20:34;;;;;;;38.10;18.30;;;;;;;16.08;58.22;97031.02;67926;1273;1016242;-64
2023/10/26 04:23:36;;;;;;;;;;;;;;;16.06;58.19;97032.81;67884;1273;1016447;-67
2023/10/26 04:26:39;;;;;;;29.10;13.90;;;;;;;16.08;58.43;97031.67;67873;1273;1016643;-69
2023/10/26 04:29:42;;;;;;;28.90;12.90;;;;;;;16.17;58.27;97026.12;67914;1273;1016297;-67
2023/10/26 04:32:44;;;;;;;32.40;14.60;;;;;;;16.13;58.30;97020.77;67920;1273;1016437;-66
2023/10/26 04:35:47;;;;;;;30.20;14.90;;;;;;;16.20;57.82;97016.84;67921;1273;1016423;-67
2023/10/26 04:38:50;;;;;;;42.00;24.10;;;;;;;16.06;58.01;97011.05;67917;1273;1016108;-68
2023/10/26 04:41:52;;;;;;;46.10;26.10;;;;;;;16.16;57.73;97000.98;67870;1273;1015757;-68
2023/10/26 04:44:55;;;;;;;34.70;17.70;;;;;;;16.11;58.00;96994.02;67897;1273;1018065;-67
2023/10/26 04:47:58;;;;;;;35.40;16.60;;;;;;;15.84;58.74;96991.52;67922;1273;1016321;-68
2023/10/26 04:51:01;;;;;;;31.30;15.50;;;;;;;15.86;58.88;96986.52;67887;1273;1016455;-68
2023/10/26 04:54:04;;;;;;;29.60;15.00;;;;;;;15.99;58.37;96982.14;67956;1273;1015900;-68
2023/10/26 04:57:06;;;;;;;31.80;14.30;;;;;;;15.95;58.64;96975.37;67932;1273;1016458;-67
2023/10/26 05:00:10;;;;;;;32.30;14.90;;;;;;;16.03;58.52;96967.40;67932;1273;1016337;-64
2023/10/26 05:03:12;;;;;;;33.50;15.70;;;;;;;16.10;58.25;96960.05;67924;1273;1016043;-68
2023/10/26 05:06:16;;;;;;;29.70;14.00;;;;;;;16.27;57.84;96948.42;67886;1273;1016208;-67
2023/10/26 05:09:19;;;;;;;28.80;14.20;;;;;;;16.32;57.65;96954.91;67905;1273;1016570;-67
2023/10/26 05:12:21;;;;;;;31.80;14.90;;;;;;;16.21;57.72;96951.89;67888;1273;1016345;-68
2023/10/26 05:15:24;;;;;;;31.70;14.00;;;;;;;16.18;57.81;96969.41;67970;1273;1016463;-68
2023/10/26 05:18:26;;;;;;;32.30;14.00;;;;;;;16.17;57.99;96969.52;67916;1273;1016303;-67
2023/10/26 05:21:29;;;;;;;29.20;13.20;;;;;;;16.14;58.27;96964.13;67903;1273;1016984;-68
2023/10/26 05:24:31;;;;;;;32.60;14.60;;;;;;;16.24;58.10;96958.95;67881;1273;1016415;-68
2023/10/26 05:27:33;;;;;;;30.20;14.50;;;;;;;16.21;58.18;96949.41;67898;1273;1016445;-68
2023/10/26 05:30:36;;;;;;;32.30;15.50;;;;;;;16.34;57.80;96948.37;67912;1273;1016636;-66
2023/10/26 05:33:38;;;;;;;31.60;13.70;;;;;;;16.35;57.83;96943.34;67930;1273;1016480;-67
2023/10/26 05:36:41;;;;;;;30.80;13.90;;;;;;;16.34;58.17;96941.98;67888;1273;1017190;-68
2023/10/26 05:39:43;;;;;;;32.50;14.50;;;;;;;16.43;58.06;96940.23;67877;1273;1015923;-67
2023/10/26 05:42:45;;;;;;;30.60;14.40;;;;;;;16.49;58.14;96946.44;67868;1273;1016434;-68
2023/10/26 05:45:48;;;;;;;29.70;14.00;;;;;;;16.53;58.26;96954.83;67922;1273;1016150;-67
2023/10/26 05:48:50;;;;;;;31.20;15.80;;;;;;;16.75;57.77;96956.20;67924;1273;1016401;-68
2023/10/26 05:51:53;;;;;;;30.90;14.10;;;;;;;16.85;57.49;96948.55;67879;1273;1016376;-67
2023/10/26 05:54:55;;;;;;;29.70;14.60;;;;;;;16.99;57.26;96936.27;67871;1273;1016280;-67
2023/10/26 05:57:58;;;;;;;28.70;13.70;;;;;;;16.96;57.09;96938.58;67885;1273;1016222;-68
2023/10/26 06:01:00;;;;;;;29.10;14.00;;;;;;;16.90;57.51;96932.24;67941;1273;1016629;-68
2023/10/26 06:04:03;;;;;;;28.20;13.70;;;;;;;16.88;57.55;96930.98;67945;1273;1016280;-68
2023/10/26 06:07:05;;;;;;;31.10;13.50;;;;;;;17.00;57.32;96931.30;67851;1273;1016497;-68
2023/10/26 06:10:09;;;;;;;29.30;13.70;;;;;;;17.01;57.36;96910.20;67878;1273;1015812;-67
2023/10/26 06:13:13;;;;;;;28.10;13.00;;;;;;;16.98;57.34;96893.37;67849;1273;1016099;-67
2023/10/26 06:16:16;;;;;;;27.80;12.40;;;;;;;16.89;57.46;96885.22;67894;1273;1016347;-68
2023/10/26 06:19:18;;;;;;;26.80;12.00;;;;;;;16.90;57.56;96887.02;67904;1273;1016423;-67
2023/10/26 06:22:21;;;;;;;28.90;12.60;;;;;;;16.93;57.62;96900.14;67934;1273;1016151;-68
2023/10/26 06:25:25;;;;;;;28.00;12.80;;;;;;;17.00;57.64;96914.60;67938;1273;1017536;-68
2023/10/26 06:28:27;;;;;;;27.50;11.90;;;;;;;17.06;57.66;96928.14;67908;1273;1018064;-66
2023/10/26 06:31:30;;;;;;;29.40;12.10;;;;;;;17.02;57.61;96915.36;67909;1273;1016474;-68
2023/10/26 06:34:32;;;;;;;27.20;11.80;;;;;;;17.00;58.04;96905.67;67874;1273;1016555;-67
2023/10/26 06:37:34;;;;;;;25.10;11.00;;;;;;;17.15;57.88;96905.32;67905;1273;1017307;-67
2023/10/26 06:40:37;;;;;;;26.40;10.30;;;;;;;17.20;57.88;96911.05;67924;1273;1018703;-66
2023/10/26 06:43:39;;;;;;;26.10;11.50;;;;;;;17.24;57.81;96912.58;67939;1273;1016426;-67
2023/10/26 06:46:42;;;;;;;26.40;11.70;;;;;;;17.26;57.91;96908.23;67895;1273;1016284;-63
2023/10/26 06:49:44;;;;;;;25.90;10.50;;;;;;;17.23;58.02;96909.67;67886;1273;1016029;-65
2023/10/26 06:52:46;;;;;;;24.00;10.40;;;;;;;17.30;57.83;96900.84;67876;1273;1018785;-68
2023/10/26 06:55:49;;;;;;;24.60;10.90;;;;;;;17.39;58.04;96886.77;67888;1273;1016447;-65
2023/10/26 06:58:51;;;;;;;24.60;10.70;;;;;;;17.63;57.92;96888.09;67882;1273;1016415;-66
2023/10/26 07:01:54;;;;;;;26.90;11.20;;;;;;;17.63;58.04;96888.26;67914;1273;1016412;-64
2023/10/26 07:04:56;;;;;;;27.20;11.40;;;;;;;17.87;57.75;96887.32;67842;1273;1016135;-66
2023/10/26 07:07:59;;;;;;;26.20;11.00;;;;;;;18.09;57.49;96890.95;67888;1273;1016402;-68
2023/10/26 07:11:02;;;;;;;27.20;10.80;;;;;;;18.17;57.51;96886.05;67963;1273;1015977;-67
2023/10/26 07:14:04;;;;;;;27.60;10.80;;;;;;;18.31;57.29;96890.48;67853;1273;1016102;-68
2023/10/26 07:17:07;;;;;;;24.40;9.40;;;;;;;18.34;57.40;96896.36;67788;1273;1016338;-65
2023/10/26 07:20:09;;;;;;;24.00;9.40;;;;;;;18.48;57.36;96889.60;67944;1273;1016284;-66
2023/10/26 07:23:12;;;;;;;23.70;10.00;;;;;;;18.61;57.23;96884.15;67878;1273;1016477;-66
2023/10/26 07:26:14;;;;;;;24.80;9.90;;;;;;;18.71;56.82;96884.61;67839;1273;1016501;-67
2023/10/26 07:29:17;;;;;;;22.40;8.60;;;;;;;19.09;56.12;96885.77;67912;1273;1016465;-65
2023/10/26 07:32:19;;;;;;;30.00;14.50;;;;;;;19.36;55.67;96880.84;67903;1273;1016678;-68
2023/10/26 07:35:21;;;;;;;35.30;17.70;;;;;;;19.45;55.66;96876.98;67934;1273;1015739;-65
2023/10/26 07:38:24;;;;;;;22.80;9.40;;;;;;;19.51;55.79;96883.23;67958;1251;1016340;-68
2023/10/26 07:41:27;;;;;;;25.60;10.20;;;;;;;19.49;55.85;96881.91;67902;1273;1016105;-67
2023/10/26 07:44:30;;;;;;;21.10;7.90;;;;;;;19.41;56.07;96878.15;67897;1273;1018954;-65
2023/10/26 07:47:34;;;;;;;22.10;7.40;;;;;;;19.64;55.51;96875.36;67871;1273;1016263;-66
2023/10/26 07:50:36;;;;;;;19.80;6.90;;;;;;;19.48;56.01;96872.63;67902;1273;1016300;-68
2023/10/26 07:53:38;;;;;;;18.80;6.20;;;;;;;19.56;55.95;96876.84;67920;1273;1016384;-68
2023/10/26 07:56:41;;;;;;;;;;;;;;;19.67;55.78;96881.23;67851;1273;1016319;-65
2023/10/26 07:59:43;;;;;;;18.20;5.40;;;;;;;19.88;55.12;96885.64;67884;1273;1016386;-66
2023/10/26 08:02:46;;;;;;;;;;;;;;;19.94;55.27;96886.41;67936;1273;1016479;-67
2023/10/26 08:05:48;;;;;;;18.60;5.00;;;;;;;20.02;55.02;96881.48;67917;1273;1016338;-67
2023/10/26 08:08:51;;;;;;;;;;;;;;;20.11;55.01;96880.56;67875;1273;1015832;-67
2023/10/26 08:11:54;;;;;;;18.00;5.50;;;;;;;20.31;54.77;96881.65;67906;1273;1016391;-66
2023/10/26 08:14:57;;;;;;;16.30;5.30;;;;;;;20.37;54.69;96879.24;67936;1273;1016438;-63
2023/10/26 08:17:59;;;;;;;17.60;4.40;;;;;;;20.43;55.06;96883.22;67878;1273;1016001;-65
2023/10/26 08:21:03;;;;;;;15.10;4.30;;;;;;;20.39;54.99;96883.58;67901;1273;1016402;-65
2023/10/26 08:24:05;;;;;;;15.00;3.90;;;;;;;20.30;55.28;96888.12;67853;1273;1016547;-67
2023/10/26 08:27:07;;;;;;;17.40;4.60;;;;;;;20.29;55.56;96890.45;67848;1273;1016464;-66
2023/10/26 08:30:10;;;;;;;18.40;4.70;;;;;;;20.40;55.39;96887.69;67871;1273;1016244;-68
2023/10/26 08:33:12;;;;;;;16.10;4.10;;;;;;;20.45;55.12;96882.81;67896;1273;1016450;-66
2023/10/26 08:36:15;;;;;;;16.80;4.10;;;;;;;20.42;55.13;96883.21;67917;1273;1016468;-64
2023/10/26 08:39:17;;;;;;;;;;;;;;;20.37;55.03;96882.77;67866;1273;1016460;-67
2023/10/26 08:42:20;;;;;;;13.90;3.90;;;;;;;20.30;54.77;96884.90;67909;1273;1016799;-67
2023/10/26 08:45:23;;;;;;;15.60;4.50;;;;;;;20.33;55.06;96884.31;67962;1273;1016355;-67
2023/10/26 08:48:25;;;;;;;17.00;5.10;;;;;;;20.50;54.86;96883.56;67864;1273;1016401;-68
2023/10/26 08:51:28;;;;;;;17.40;4.80;;;;;;;20.65;54.67;96883.89;67888;1273;1016727;-68
2023/10/26 08:54:30;;;;;;;13.60;4.40;;;;;;;20.72;54.66;96887.06;67916;1273;1016391;-68
2023/10/26 08:57:33;;;;;;;11.50;3.70;;;;;;;20.95;54.46;96892.50;67933;1273;1016980;-67
2023/10/26 09:00:35;;;;;;;16.00;4.30;;;;;;;21.17;54.46;96888.17;67906;1273;1016843;-68
2023/10/26 09:03:38;;;;;;;13.10;3.90;;;;;;;21.36;53.54;96887.83;67889;1273;1018874;-66
2023/10/26 09:06:40;;;;;;;;;;;;;;;21.40;53.38;96884.65;67922;1273;1016543;-68
2023/10/26 09:09:42;;;;;;;14.90;4.10;;;;;;;21.24;53.09;96880.39;67893;1273;1016315;-68
2023/10/26 09:12:45;;;;;;;15.50;4.30;;;;;;;21.18;53.28;96872.75;67911;1273;1016398;-68
2023/10/26 09:15:48;;;;;;;16.90;4.40;;;;;;;21.30;53.44;96871.39;67916;1273;1016139;-67
2023/10/26 09:18:51;;;;;;;18.60;4.30;;;;;;;21.52;53.53;96870.48;67891;1273;1016290;-68
2023/10/26 09:21:54;;;;;;;17.40;4.50;;;;;;;21.67;52.85;96868.14;67890;1273;1016290;-68
2023/10/26 09:24:56;;;;;;;21.90;5.80;;;;;;;21.72;52.49;96870.79;67881;1251;1016153;-68
2023/10/26 09:27:59;;;;;;;19.10;5.30;;;;;;;21.56;52.46;96861.90;67942;1273;1016332;-68
2023/10/26 09:31:02;;;;;;;17.70;5.30;;;;;;;21.68;52.54;96865.80;67930;1273;1016308;-68
2023/10/26 09:34:04;;;;;;;17.80;5.10;;;;;;;21.77;52.46;96867.31;67869;1273;1016229;-68
2023/10/26 09:37:07;;;;;;;18.10;5.40;;;;;;;21.66;52.29;96872.58;67938;1273;1016435;-69
2023/10/26 09:40:09;;;;;;;18.00;5.20;;;;;;;21.73;52.60;96867.26;67893;1273;1016093;-67
2023/10/26 09:43:12;;;;;;;20.10;5.90;;;;;;;22.16;52.56;96860.89;67894;1273;1016498;-67
2023/10/26 09:46:14;;;;;;;16.40;4.50;;;;;;;22.54;51.32;96856.61;67842;1273;1016048;-68
2023/10/26 09:49:17;;;;;;;19.30;6.00;;;;;;;22.71;50.32;96847.10;67972;1273;1016232;-68
2023/10/26 09:52:19;;;;;;;17.90;5.00;;;;;;;22.57;50.25;96849.33;67877;1273;1016468;-68
2023/10/26 09:55:22;;;;;;;15.90;5.00;;;;;;;22.49;50.60;96853.34;67843;1273;1016484;-66
2023/10/26 09:58:24;;;;;;;;;;;;;;;22.15;49.79;96853.71;67898;1273;1017533;-68
2023/10/26 10:01:26;;;;;;;17.30;4.80;;;;;;;21.83;50.31;96855.21;67899;1273;1016187;-63
2023/10/26 10:04:29;;;;;;;16.10;4.10;;;;;;;21.83;50.50;96853.41;67933;1273;1016325;-68
2023/10/26 10:07:31;;;;;;;15.80;3.80;;;;;;;21.87;50.51;96845.75;67928;1273;1016240;-68
2023/10/26 10:10:34;;;;;;;;;;;;;;;21.90;49.76;96846.68;67886;1273;1016411;-68
2023/10/26 10:13:36;;;;;;;15.90;4.00;;;;;;;21.91;50.18;96841.73;67893;1273;1016445;-68
2023/10/26 10:16:40;;;;;;;;;;;;;;;21.98;50.30;96838.71;67954;1273;1015835;-68
2023/10/26 10:19:43;;;;;;;16.50;3.90;;;;;;;21.81;49.72;96844.02;67908;1273;1016429;-68
2023/10/26 10:22:46;;;;;;;14.10;3.80;;;;;;;21.89;50.09;96826.32;67983;1273;1015901;-68
2023/10/26 10:25:49;;;;;;;21.40;6.00;;;;;;;22.01;50.06;96826.33;67879;1273;1016326;-68
2023/10/26 10:28:54;;;;;;;14.80;3.80;;;;;;;22.19;49.86;96830.43;67922;1273;1018695;-68
2023/10/26 10:31:56;;;;;;;16.30;3.70;;;;;;;21.94;49.46;96831.02;67867;1273;1016899;-68
2023/10/26 10:34:59;;;;;;;18.10;4.00;;;;;;;21.74;50.22;96829.40;67868;1273;1016517;-67
2023/10/26 10:38:01;;;;;;;15.50;3.80;;;;;;;21.76;50.10;96832.27;67901;1273;1016436;-68
2023/10/26 10:41:04;;;;;;;17.00;4.20;;;;;;;21.90;50.38;96830.82;67932;1273;1016388;-67
2023/10/26 10:44:07;;;;;;;13.10;3.80;;;;;;;21.92;49.47;96829.75;67878;1257;1017580;-66
2023/10/26 10:47:09;;;;;;;9.30;2.90;;;;;;;21.87;49.24;96828.05;67844;1273;1016446;-65
2023/10/26 10:50:12;;;;;;;12.90;3.40;;;;;;;21.79;49.58;96822.92;67897;1273;1016401;-68
2023/10/26 10:53:14;;;;;;;11.70;2.80;;;;;;;21.73;49.12;96819.23;67930;1273;1019176;-68
2023/10/26 10:56:16;;;;;;;11.30;2.90;;;;;;;21.63;49.13;96820.21;67925;1273;1016274;-68
2023/10/26 10:59:19;;;;;;;16.60;4.10;;;;;;;21.43;49.09;96820.29;67835;1273;1016466;-68
2023/10/26 11:02:21;;;;;;;;;;;;;;;21.41;49.33;96822.09;67931;1273;1016201;-68
2023/10/26 11:05:24;;;;;;;22.60;5.20;;;;;;;21.52;49.45;96825.75;67915;1273;1016381;-68
2023/10/26 11:08:26;;;;;;;14.10;3.80;;;;;;;21.62;49.87;96823.55;67902;1273;1017157;-68
2023/10/26 11:11:30;;;;;;;;;;;;;;;21.50;50.27;96817.51;67962;1273;1016156;-68
2023/10/26 11:14:33;;;;;;;13.40;3.40;;;;;;;21.58;50.25;96820.48;67933;1273;1016077;-68
2023/10/26 11:17:37;;;;;;;13.60;3.60;;;;;;;21.71;50.14;96817.42;67931;1273;1016887;-67
2023/10/26 11:20:39;;;;;;;12.70;3.20;;;;;;;21.92;49.70;96816.36;67878;1273;1016390;-68
2023/10/26 11:23:42;;;;;;;16.30;3.50;;;;;;;21.92;49.27;96816.41;67888;1273;1019310;-65
2023/10/26 11:26:44;;;;;;;17.70;4.10;;;;;;;22.01;49.41;96814.59;67908;1273;1016480;-68
2023/10/26 11:29:47;;;;;;;10.10;2.90;;;;;;;21.90;49.05;96816.86;67902;1250;1016350;-67
2023/10/26 11:32:49;;;;;;;11.10;3.20;;;;;;;21.69;49.20;96824.02;67896;1273;1018988;-68
2023/10/26 11:35:52;;;;;;;15.30;3.60;;;;;;;21.62;49.38;96824.13;67891;1273;1016340;-67
2023/10/26 11:38:54;;;;;;;15.70;3.30;;;;;;;21.49;49.32;96824.41;67947;1273;1016447;-68
2023/10/26 11:41:57;;;;;;;20.60;4.40;;;;;;;21.33;49.43;96819.66;67931;1273;1016246;-66
2023/10/26 11:44:59;;;;;;;15.20;3.80;;;;;;;21.50;49.00;96829.88;67905;1273;1016108;-68
2023/10/26 11:48:02;;;;;;;;;;;;;;;21.20;49.25;96828.38;67880;1273;1016273;-68
2023/10/26 11:51:06;;;;;;;18.20;4.60;;;;;;;21.40;49.46;96830.42;67895;1273;1016524;-68
2023/10/26 11:54:09;;;;;;;15.40;3.70;;;;;;;21.43;49.28;96831.64;67931;1273;1016525;-66
2023/10/26 11:57:12;;;;;;;15.40;3.40;;;;;;;21.32;49.14;96835.26;67875;1273;1016446;-67
2023/10/26 12:00:14;;;;;;;15.30;3.20;;;;;;;21.37;49.15;96837.82;67930;1273;1015988;-68
2023/10/26 12:03:17;;;;;;;;;;;;;;;21.46;48.77;96834.55;67911;1273;1016446;-67
2023/10/26 12:06:19;;;;;;;15.00;3.30;;;;;;;21.62;48.75;96831.17;67883;1273;1016424;-65
2023/10/26 12:09:22;;;;;;;14.30;3.40;;;;;;;21.86;48.11;96829.87;67907;1273;1016246;-67
2023/10/26 12:12:25;;;;;;;10.20;2.70;;;;;;;21.85;48.18;96822.33;67943;1273;1016202;-68
2023/10/26 12:15:27;;;;;;;15.50;4.00;;;;;;;22.15;47.97;96826.20;67889;1273;1016217;-68
2023/10/26 12:18:30;;;;;;;12.70;3.70;;;;;;;22.46;47.44;96822.48;67880;1273;1017719;-67
2023/10/26 12:21:32;;;;;;;;;;;;;;;22.45;46.92;96830.88;67885;1273;1016482;-67
2023/10/26 12:24:35;;;;;;;18.30;5.20;;;;;;;22.50;47.39;96824.64;67904;1273;1016416;-68
2023/10/26 12:27:45;;;;;;;15.90;4.90;;;;;;;22.47;46.94;96824.13;67856;1273;1016290;-67
2023/10/26 12:30:49;;;;;;;17.10;3.70;;;;;;;22.50;46.72;96820.83;67878;1273;1016435;-67
2023/10/26 12:33:52;;;;;;;18.50;5.10;;;;;;;22.22;46.95;96825.98;67887;1273;1015724;-68
2023/10/26 12:36:54;;;;;;;17.60;4.60;;;;;;;22.31;47.60;96828.60;67912;1273;1016359;-67
2023/10/26 12:39:57;;;;;;;12.10;2.90;;;;;;;22.35;46.40;96829.23;67910;1273;1016264;-65
2023/10/26 12:42:59;;;;;;;11.30;2.70;;;;;;;22.52;45.94;96829.39;67887;1273;1016454;-67
2023/10/26 12:46:01;;;;;;;;;;;;;;;22.54;46.49;96827.98;67948;1273;1016978;-68
2023/10/26 12:49:04;;;;;;;21.20;4.60;;;;;;;22.62;46.12;96826.46;67893;1273;1016594;-67
2023/10/26 12:52:06;;;;;;;14.20;3.40;;;;;;;22.63;46.19;96831.36;67908;1273;1016226;-64
2023/10/26 12:55:09;;;;;;;;;;;;;;;22.75;45.98;96828.98;67900;1273;1016014;-67
2023/10/26 12:58:11;;;;;;;13.40;3.20;;;;;;;22.62;45.64;96824.73;67947;1273;1016412;-67
2023/10/26 13:01:13;;;;;;;11.00;2.80;;;;;;;22.57;46.08;96825.65;67896;1273;1016337;-64
2023/10/26 13:04:16;;;;;;;;;;;;;;;22.47;45.97;96836.55;67843;1273;1019638;-68
2023/10/26 13:07:21;;;;;;;14.40;3.30;;;;;;;22.42;46.29;96840.16;67864;1273;1015808;-64
2023/10/26 13:10:23;;;;;;;12.70;2.70;;;;;;;22.50;46.37;96845.27;67921;1273;1016383;-68
2023/10/26 13:13:26;;;;;;;13.00;2.80;;;;;;;22.19;45.70;96849.58;67923;1273;1016248;-68
2023/10/26 13:16:28;;;;;;;10.00;2.10;;;;;;;22.03;46.18;96855.10;67126;1273;1016370;-67
2023/10/26 13:19:31;;;;;;;9.30;2.40;;;;;;;21.92;45.87;96855.91;67923;1273;1016387;-67
2023/10/26 13:22:33;;;;;;;;;;;;;;;21.92;46.35;96858.52;67914;1273;1016243;-67
2023/10/26 13:25:36;;;;;;;16.10;4.00;;;;;;;21.90;46.71;96859.20;67886;1273;1016398;-66
2023/10/26 13:28:38;;;;;;;;;;;;;;;21.83;46.43;96861.16;67880;1273;1016252;-68
2023/10/26 13:31:41;;;;;;;14.60;3.20;;;;;;;21.69;46.61;96869.73;67885;1273;1016327;-68
2023/10/26 13:34:43;;;;;;;13.30;3.50;;;;;;;21.63;46.99;96865.58;67902;1273;1016291;-68
2023/10/26 13:37:46;;;;;;;15.90;2.90;;;;;;;21.54;47.43;96873.05;67908;1273;1016265;-68
2023/10/26 13:40:49;;;;;;;16.80;3.70;;;;;;;21.50;47.52;96869.13;67896;1273;1016462;-67
2023/10/26 13:43:51;;;;;;;17.10;4.10;;;;;;;21.42;47.69;96869.67;67881;1273;1016283;-67
2023/10/26 13:46:53;;;;;;;;;;;;;;;21.26;47.81;96871.29;67913;1273;1016778;-67
2023/10/26 13:49:56;;;;;;;8.60;2.40;;;;;;;21.20;48.26;96874.21;67946;1273;1016725;-67
2023/10/26 13:52:59;;;;;;;10.70;2.60;;;;;;;21.10;48.21;96875.75;67871;1273;1016773;-68